WBU weather

Boulder Municipal Airport
Boulder, Colorado, United States

Public forecast

Using degrees Fahrenheit for public forecast. Weather courtesy of forecast.io.

Current aviation weather report (METAR) for Boulder Municipal Airport

Retrieved 2019/10/17 14:30 UTC (0 seconds ago):

KBDU 171430Z AUTO 00000KT 10SM CLR 11/M02 A2990 RMK AO2

Closest aviation forecast (TAF) to Boulder Municipal Airport

Closest forecast is Rocky Mountain Metropolitan Airport, 9.3 nm (17.2 km) SSE. Retrieved 2019/10/17 12:30 UTC (2 hours ago):

TAF KBJC 171127Z 1712/1812 VRB05KT P6SM BKN220 FM171700 07009KT P6SM BKN220 FM172200 04010KT P6SM BKN220 FM180100 33008KT P6SM SCT220 FM180500 26010KT P6SM FEW150 SCT220